Time;durP1;ratioP1;P1;durP2;ratioP2;P2;SDS_P1;SDS_P2;PMS_P1;PMS_P2;Temp;Humidity;BMP_temperature;BMP_pressure;BME280_temperature;BME280_humidity;BME280_pressure;Samples;Min_cycle;Max_cycle;Signal;HPM_P1;HPM_P2
2022/12/31 00:01:13;;;;;;;1999.90;999.90;;;;;;;;;;5069290;28;20495;-73
2022/12/31 00:03:41;;;;;;;1999.90;999.90;;;;;;;;;;5072428;28;20139;-68
2022/12/31 00:06:15;;;;;;;1999.90;999.90;;;;;;;;;;5075681;28;20091;-68
2022/12/31 00:08:42;;;;;;;1999.90;999.90;;;;;;;;;;5070241;28;20048;-63
2022/12/31 00:11:08;;;;;;;1999.90;999.90;;;;;;;;;;5069632;28;20088;-68
2022/12/31 00:13:36;;;;;;;1999.90;999.90;;;;;;;;;;5072704;28;20149;-62
2022/12/31 00:16:08;;;;;;;1999.90;999.90;;;;;;;;;;5069270;28;20135;-63
2022/12/31 00:35:54;;;;;;;1999.90;999.90;;;;;;;;;;4964647;28;20130;-86
2022/12/31 00:38:21;;;;;;;1999.90;999.90;;;;;;;;;;4963318;28;20133;-87
2022/12/31 00:40:47;;;;;;;1999.90;999.90;;;;;;;;;;4970991;28;20142;-87
2022/12/31 00:43:14;;;;;;;1999.90;999.90;;;;;;;;;;4961947;28;20126;-86
2022/12/31 00:45:41;;;;;;;1999.90;999.90;;;;;;;;;;4963149;28;20493;-86
2022/12/31 00:48:08;;;;;;;1999.90;999.90;;;;;;;;;;4941694;28;20549;-87
2022/12/31 00:50:35;;;;;;;1999.90;999.90;;;;;;;;;;4943861;28;20527;-87
2022/12/31 00:53:03;;;;;;;1999.90;999.90;;;;;;;;;;4941195;29;20090;-88
2022/12/31 00:55:30;;;;;;;1999.90;999.90;;;;;;;;;;4942730;29;20083;-88
2022/12/31 00:57:56;;;;;;;1999.90;999.90;;;;;;;;;;4943751;29;20086;-88
2022/12/31 01:00:23;;;;;;;1999.90;999.90;;;;;;;;;;4942735;29;20746;-86
2022/12/31 01:02:49;;;;;;;1999.90;999.90;;;;;;;;;;4944121;29;20510;-86
2022/12/31 01:05:16;;;;;;;1999.90;999.90;;;;;;;;;;4989528;28;20149;-87
2022/12/31 01:07:43;;;;;;;1999.90;999.90;;;;;;;;;;4988456;28;20057;-87
2022/12/31 01:10:11;;;;;;;1999.90;999.90;;;;;;;;;;5006689;28;20069;-87
2022/12/31 01:12:37;;;;;;;1999.90;999.90;;;;;;;;;;5011325;28;20129;-86
2022/12/31 01:15:05;;;;;;;1999.90;999.90;;;;;;;;;;5003202;28;20133;-85
2022/12/31 01:17:31;;;;;;;1999.90;999.90;;;;;;;;;;5011969;28;20045;-87
2022/12/31 01:19:58;;;;;;;1999.90;999.90;;;;;;;;;;5010892;28;20168;-86
2022/12/31 01:22:25;;;;;;;1999.90;999.90;;;;;;;;;;5009599;28;20046;-86
2022/12/31 01:24:51;;;;;;;1999.90;999.90;;;;;;;;;;5008352;28;20046;-86
2022/12/31 01:27:19;;;;;;;1999.90;999.90;;;;;;;;;;5018646;28;20080;-85
2022/12/31 01:29:46;;;;;;;1999.90;999.90;;;;;;;;;;5006317;28;20081;-86
2022/12/31 01:32:13;;;;;;;1999.90;999.90;;;;;;;;;;5010977;28;20077;-85
2022/12/31 01:34:39;;;;;;;1999.90;999.90;;;;;;;;;;5016465;28;20054;-85
2022/12/31 01:37:06;;;;;;;1999.90;999.90;;;;;;;;;;5001585;28;20386;-85
2022/12/31 01:39:32;;;;;;;1999.90;999.90;;;;;;;;;;5003865;28;20104;-85
2022/12/31 01:41:59;;;;;;;1999.90;999.90;;;;;;;;;;5010173;28;20505;-86
2022/12/31 01:44:48;;;;;;;1999.90;999.90;;;;;;;;;;5001802;28;20050;-86
2022/12/31 01:47:16;;;;;;;1999.90;999.90;;;;;;;;;;5000942;28;20375;-86
2022/12/31 01:49:45;;;;;;;1999.90;999.90;;;;;;;;;;4998469;28;20043;-86
2022/12/31 01:52:14;;;;;;;1999.90;999.90;;;;;;;;;;5010468;28;20069;-86
2022/12/31 01:54:42;;;;;;;1999.90;999.90;;;;;;;;;;5008743;28;20108;-86
2022/12/31 01:57:10;;;;;;;1999.90;999.90;;;;;;;;;;5005667;28;20108;-86
2022/12/31 01:59:36;;;;;;;1999.90;999.90;;;;;;;;;;5013536;28;20088;-86
2022/12/31 02:02:05;;;;;;;1999.90;999.90;;;;;;;;;;5001195;28;20046;-85
2022/12/31 02:04:31;;;;;;;1999.90;999.90;;;;;;;;;;5005981;28;20068;-86
2022/12/31 02:07:01;;;;;;;1999.90;999.90;;;;;;;;;;5004954;28;20047;-86
2022/12/31 02:09:28;;;;;;;1999.90;999.90;;;;;;;;;;5010106;28;20493;-86
2022/12/31 02:11:54;;;;;;;1999.90;999.90;;;;;;;;;;5007983;28;20103;-86
2022/12/31 02:14:23;;;;;;;1999.90;999.90;;;;;;;;;;5009065;28;20483;-86
2022/12/31 02:16:56;;;;;;;1999.90;999.90;;;;;;;;;;5004843;28;20091;-88
2022/12/31 02:19:40;;;;;;;1999.90;999.90;;;;;;;;;;4999512;28;20081;-86
2022/12/31 02:22:10;;;;;;;1999.90;999.90;;;;;;;;;;5014226;28;20083;-87
2022/12/31 02:25:03;;;;;;;1999.90;999.90;;;;;;;;;;5006618;28;20046;-87
2022/12/31 02:27:40;;;;;;;1999.90;999.90;;;;;;;;;;5005463;28;20061;-86
2022/12/31 02:30:13;;;;;;;1999.90;999.90;;;;;;;;;;5009618;28;20081;-86
2022/12/31 02:32:49;;;;;;;1999.90;999.90;;;;;;;;;;5005845;28;20108;-86
2022/12/31 02:35:20;;;;;;;1999.90;999.90;;;;;;;;;;5010505;28;20089;-87
2022/12/31 02:37:50;;;;;;;1999.90;999.90;;;;;;;;;;5005435;28;20050;-86
2022/12/31 02:40:20;;;;;;;1999.90;999.90;;;;;;;;;;5001929;28;20046;-85
2022/12/31 02:42:47;;;;;;;1999.90;999.90;;;;;;;;;;5008225;28;20088;-86
2022/12/31 02:45:18;;;;;;;1999.90;999.90;;;;;;;;;;5009991;28;20073;-86
2022/12/31 02:47:52;;;;;;;1999.90;999.90;;;;;;;;;;5014935;28;20037;-85
2022/12/31 02:50:29;;;;;;;1999.90;999.90;;;;;;;;;;5022346;28;20077;-86
2022/12/31 02:53:05;;;;;;;1999.90;999.90;;;;;;;;;;5007825;28;20038;-85
2022/12/31 02:55:40;;;;;;;1999.90;999.90;;;;;;;;;;5010737;28;20096;-86
2022/12/31 02:58:12;;;;;;;1999.90;999.90;;;;;;;;;;5007689;28;20104;-86
2022/12/31 03:03:29;;;;;;;1999.90;999.90;;;;;;;;;;5004677;28;20061;-85
2022/12/31 03:05:56;;;;;;;1999.90;999.90;;;;;;;;;;5011172;28;20042;-85
2022/12/31 03:08:23;;;;;;;1999.90;999.90;;;;;;;;;;5022990;28;20460;-85
2022/12/31 03:10:50;;;;;;;1999.90;999.90;;;;;;;;;;5007735;28;20119;-84
2022/12/31 03:13:16;;;;;;;1999.90;999.90;;;;;;;;;;5015698;28;20423;-85
2022/12/31 03:15:44;;;;;;;1999.90;999.90;;;;;;;;;;5004656;28;20105;-84
2022/12/31 03:18:12;;;;;;;1999.90;999.90;;;;;;;;;;5001070;28;20081;-85
2022/12/31 03:23:27;;;;;;;1999.90;999.90;;;;;;;;;;5007646;28;20065;-85
2022/12/31 03:25:53;;;;;;;1999.90;999.90;;;;;;;;;;5011952;28;20049;-85
2022/12/31 03:28:22;;;;;;;1999.90;999.90;;;;;;;;;;5012456;28;20713;-84
2022/12/31 03:30:54;;;;;;;1999.90;999.90;;;;;;;;;;5008463;28;20042;-86
2022/12/31 03:33:21;;;;;;;1999.90;999.90;;;;;;;;;;5005423;28;20155;-85
2022/12/31 03:39:09;;;;;;;1999.90;999.90;;;;;;;;;;5020408;28;20041;-85
2022/12/31 03:41:36;;;;;;;1999.90;999.90;;;;;;;;;;5003052;28;20143;-85
2022/12/31 03:44:02;;;;;;;1999.90;999.90;;;;;;;;;;5011682;28;20086;-84
2022/12/31 03:46:30;;;;;;;1999.90;999.90;;;;;;;;;;5006434;28;20076;-86
2022/12/31 03:48:57;;;;;;;1999.90;999.90;;;;;;;;;;5008891;28;20082;-84
2022/12/31 03:51:24;;;;;;;1999.90;999.90;;;;;;;;;;5005350;28;20049;-85
2022/12/31 03:53:51;;;;;;;1999.90;999.90;;;;;;;;;;5009582;28;20112;-84
2022/12/31 03:56:17;;;;;;;1999.90;999.90;;;;;;;;;;5004218;28;20117;-85
2022/12/31 03:58:44;;;;;;;1999.90;999.90;;;;;;;;;;5006045;28;20137;-85
2022/12/31 04:01:11;;;;;;;1999.90;999.90;;;;;;;;;;5005170;28;20082;-85
2022/12/31 04:03:39;;;;;;;1999.90;999.90;;;;;;;;;;5007711;28;20125;-85
2022/12/31 04:06:05;;;;;;;1999.90;999.90;;;;;;;;;;5006130;28;20057;-85
2022/12/31 04:08:32;;;;;;;1999.90;999.90;;;;;;;;;;5012919;28;20164;-85
2022/12/31 04:10:58;;;;;;;1999.90;999.90;;;;;;;;;;5008743;28;20042;-85
2022/12/31 04:13:25;;;;;;;1999.90;999.90;;;;;;;;;;5007916;28;20153;-84
2022/12/31 04:15:51;;;;;;;1999.90;999.90;;;;;;;;;;5010119;28;20077;-87
2022/12/31 04:18:18;;;;;;;1999.90;999.90;;;;;;;;;;5002564;28;20092;-84
2022/12/31 04:20:46;;;;;;;1999.90;999.90;;;;;;;;;;5009536;28;20643;-85
2022/12/31 04:23:12;;;;;;;1999.90;999.90;;;;;;;;;;5005737;28;20078;-85
2022/12/31 04:25:39;;;;;;;1999.90;999.90;;;;;;;;;;5008970;28;20050;-85
2022/12/31 04:28:06;;;;;;;1999.90;999.90;;;;;;;;;;5006438;28;20081;-85
2022/12/31 04:30:32;;;;;;;1999.90;999.90;;;;;;;;;;5009701;28;20041;-85
2022/12/31 04:32:59;;;;;;;1999.90;999.90;;;;;;;;;;5002262;28;20069;-85
2022/12/31 04:35:25;;;;;;;1999.90;999.90;;;;;;;;;;5014300;28;20088;-85
2022/12/31 04:37:53;;;;;;;1999.90;999.90;;;;;;;;;;5008620;28;20085;-84
2022/12/31 04:40:20;;;;;;;1999.90;999.90;;;;;;;;;;5011772;28;20053;-84
2022/12/31 04:42:46;;;;;;;1999.90;999.90;;;;;;;;;;5012046;28;20046;-85
2022/12/31 04:45:13;;;;;;;1999.90;999.90;;;;;;;;;;5005414;28;20081;-85
2022/12/31 04:47:39;;;;;;;1999.90;999.90;;;;;;;;;;5016502;28;20073;-84
2022/12/31 04:50:07;;;;;;;1999.90;999.90;;;;;;;;;;5011647;28;20135;-85
2022/12/31 04:52:33;;;;;;;1999.90;999.90;;;;;;;;;;5010383;28;20078;-84
2022/12/31 04:55:01;;;;;;;1999.90;999.90;;;;;;;;;;5012266;28;20131;-84
2022/12/31 04:57:28;;;;;;;1999.90;999.90;;;;;;;;;;5004906;28;20108;-84
2022/12/31 04:59:54;;;;;;;1999.90;999.90;;;;;;;;;;5010169;28;20097;-85
2022/12/31 05:02:21;;;;;;;1999.90;999.90;;;;;;;;;;5020664;28;20143;-88
2022/12/31 05:04:48;;;;;;;1999.90;999.90;;;;;;;;;;5011072;28;20107;-85
2022/12/31 05:07:14;;;;;;;1999.90;999.90;;;;;;;;;;5027061;28;20222;-85
2022/12/31 05:09:41;;;;;;;1999.90;999.90;;;;;;;;;;5007997;28;20092;-84
2022/12/31 05:12:09;;;;;;;1999.90;999.90;;;;;;;;;;5008256;28;20078;-85
2022/12/31 05:14:35;;;;;;;1999.90;999.90;;;;;;;;;;5017589;28;20080;-86
2022/12/31 05:17:02;;;;;;;1999.90;999.90;;;;;;;;;;5003603;28;20092;-87
2022/12/31 05:19:28;;;;;;;1999.90;999.90;;;;;;;;;;5008257;28;20054;-85
2022/12/31 05:24:35;;;;;;;1999.90;999.90;;;;;;;;;;5004978;28;20050;-84
2022/12/31 05:27:02;;;;;;;1999.90;999.90;;;;;;;;;;5008736;28;20136;-86
2022/12/31 05:29:30;;;;;;;1999.90;999.90;;;;;;;;;;5008622;28;20134;-84
2022/12/31 05:31:56;;;;;;;1999.90;999.90;;;;;;;;;;5010015;28;20069;-85
2022/12/31 05:34:23;;;;;;;1999.90;999.90;;;;;;;;;;5005281;28;20077;-85
2022/12/31 05:36:49;;;;;;;1999.90;999.90;;;;;;;;;;5013442;28;20076;-84
2022/12/31 05:39:16;;;;;;;1999.90;999.90;;;;;;;;;;5010258;28;20088;-85
2022/12/31 05:41:43;;;;;;;1999.90;999.90;;;;;;;;;;5007107;28;20092;-84
2022/12/31 05:44:10;;;;;;;1999.90;999.90;;;;;;;;;;5003077;28;20050;-84
2022/12/31 05:46:38;;;;;;;1999.90;999.90;;;;;;;;;;5007342;28;20097;-84
2022/12/31 05:49:04;;;;;;;1999.90;999.90;;;;;;;;;;5003854;28;20046;-86
2022/12/31 05:51:31;;;;;;;1999.90;999.90;;;;;;;;;;5005515;28;20084;-84
2022/12/31 05:53:58;;;;;;;1999.90;999.90;;;;;;;;;;5008764;28;20081;-85
2022/12/31 05:56:24;;;;;;;1999.90;999.90;;;;;;;;;;5007961;28;20085;-85
2022/12/31 05:58:51;;;;;;;1999.90;999.90;;;;;;;;;;5008065;28;20113;-84
2022/12/31 06:01:17;;;;;;;1999.90;999.90;;;;;;;;;;5014400;28;20081;-84
2022/12/31 06:03:45;;;;;;;1999.90;999.90;;;;;;;;;;5002849;28;20135;-85
2022/12/31 06:06:12;;;;;;;1999.90;999.90;;;;;;;;;;5007394;28;20262;-86
2022/12/31 06:08:38;;;;;;;1999.90;999.90;;;;;;;;;;5006994;28;20422;-84
2022/12/31 06:11:05;;;;;;;1999.90;999.90;;;;;;;;;;5003275;28;20137;-86
2022/12/31 06:13:31;;;;;;;1999.90;999.90;;;;;;;;;;5007561;28;20092;-85
2022/12/31 06:15:58;;;;;;;1999.90;999.90;;;;;;;;;;5006258;28;20449;-86
2022/12/31 06:18:25;;;;;;;1999.90;999.90;;;;;;;;;;5010772;28;20046;-85
2022/12/31 06:20:53;;;;;;;1999.90;999.90;;;;;;;;;;5008534;28;20088;-85
2022/12/31 06:23:19;;;;;;;1999.90;999.90;;;;;;;;;;5006478;28;20488;-84
2022/12/31 06:25:46;;;;;;;1999.90;999.90;;;;;;;;;;5001664;28;20141;-85
2022/12/31 06:28:12;;;;;;;1999.90;999.90;;;;;;;;;;5005994;28;20086;-86
2022/12/31 06:30:39;;;;;;;1999.90;999.90;;;;;;;;;;5003417;28;20108;-84
2022/12/31 06:33:05;;;;;;;1999.90;999.90;;;;;;;;;;5006109;28;20050;-86
2022/12/31 06:35:32;;;;;;;1999.90;999.90;;;;;;;;;;5013164;28;20081;-84
2022/12/31 06:38:00;;;;;;;1999.90;999.90;;;;;;;;;;5009615;28;20082;-85
2022/12/31 06:40:26;;;;;;;1999.90;999.90;;;;;;;;;;4999539;28;20082;-85
2022/12/31 06:42:53;;;;;;;1999.90;999.90;;;;;;;;;;5012533;28;20473;-85
2022/12/31 06:45:20;;;;;;;1999.90;999.90;;;;;;;;;;5008532;28;20069;-85
2022/12/31 06:47:46;;;;;;;1999.90;999.90;;;;;;;;;;5011228;28;20042;-84
2022/12/31 06:50:13;;;;;;;1999.90;999.90;;;;;;;;;;4999671;28;20457;-85
2022/12/31 06:52:39;;;;;;;1999.90;999.90;;;;;;;;;;5011484;28;20453;-84
2022/12/31 06:55:09;;;;;;;1999.90;999.90;;;;;;;;;;5012375;28;20133;-86
2022/12/31 06:57:36;;;;;;;1999.90;999.90;;;;;;;;;;5004951;28;20513;-84
2022/12/31 07:00:04;;;;;;;1999.90;999.90;;;;;;;;;;5009340;28;20120;-86
2022/12/31 07:02:54;;;;;;;1999.90;999.90;;;;;;;;;;5001512;28;20072;-84
2022/12/31 07:05:29;;;;;;;1999.90;999.90;;;;;;;;;;5005889;28;20093;-85
2022/12/31 07:08:05;;;;;;;1999.90;999.90;;;;;;;;;;5001451;28;20106;-85
2022/12/31 07:10:39;;;;;;;1999.90;999.90;;;;;;;;;;5011476;28;20081;-85
2022/12/31 07:13:15;;;;;;;1999.90;999.90;;;;;;;;;;5004384;28;20501;-85
2022/12/31 07:15:45;;;;;;;;;;;;;;;;;;5004840;28;20116;-85
2022/12/31 07:18:21;;;;;;;1999.90;999.90;;;;;;;;;;5001982;28;19965;-85
2022/12/31 07:20:48;;;;;;;1999.90;999.90;;;;;;;;;;5005195;28;20073;-83
2022/12/31 07:23:15;;;;;;;1999.90;999.90;;;;;;;;;;5001766;28;20520;-85
2022/12/31 07:25:50;;;;;;;1999.90;999.90;;;;;;;;;;5012197;28;20045;-84
2022/12/31 07:28:22;;;;;;;1999.90;999.90;;;;;;;;;;5008590;28;20088;-85
2022/12/31 07:30:54;;;;;;;1999.90;999.90;;;;;;;;;;5003320;28;20078;-85
2022/12/31 07:33:34;;;;;;;1999.90;999.90;;;;;;;;;;5003831;28;20117;-85
2022/12/31 07:36:10;;;;;;;1999.90;999.90;;;;;;;;;;5010798;28;20108;-85
2022/12/31 07:38:39;;;;;;;;;;;;;;;;;;5012750;28;20729;-85
2022/12/31 07:41:14;;;;;;;1999.90;999.90;;;;;;;;;;5004739;28;19957;-89
2022/12/31 07:43:51;;;;;;;1999.90;999.90;;;;;;;;;;5005651;28;20089;-85
2022/12/31 07:46:22;;;;;;;1999.90;999.90;;;;;;;;;;5003150;28;20061;-85
2022/12/31 07:48:50;;;;;;;1999.90;999.90;;;;;;;;;;5000304;28;20050;-85
2022/12/31 07:51:17;;;;;;;1999.90;999.90;;;;;;;;;;5010158;28;20395;-85
2022/12/31 07:53:45;;;;;;;1999.90;999.90;;;;;;;;;;5010119;28;20046;-84
2022/12/31 07:56:14;;;;;;;1999.90;999.90;;;;;;;;;;5004852;28;20543;-85
2022/12/31 07:58:51;;;;;;;1999.90;999.90;;;;;;;;;;5008011;28;20037;-85
2022/12/31 08:01:30;;;;;;;1999.90;999.90;;;;;;;;;;5012826;28;20081;-85
2022/12/31 08:04:03;;;;;;;1999.90;999.90;;;;;;;;;;4998347;28;20074;-84
2022/12/31 08:06:36;;;;;;;1999.90;999.90;;;;;;;;;;5001278;28;20104;-85
2022/12/31 08:09:08;;;;;;;1999.90;999.90;;;;;;;;;;5011869;28;20086;-85
2022/12/31 08:11:41;;;;;;;1999.90;999.90;;;;;;;;;;5003787;28;20077;-85
2022/12/31 08:14:09;;;;;;;1999.90;999.90;;;;;;;;;;5010480;28;20085;-84
2022/12/31 08:16:37;;;;;;;1999.90;999.90;;;;;;;;;;5014280;28;20680;-84
2022/12/31 08:19:04;;;;;;;1999.90;999.90;;;;;;;;;;4999475;28;20057;-85
2022/12/31 08:21:38;;;;;;;1999.90;999.90;;;;;;;;;;5006125;28;20043;-84
2022/12/31 08:24:14;;;;;;;1999.90;999.90;;;;;;;;;;5004546;28;20046;-85
2022/12/31 08:26:50;;;;;;;1999.90;999.90;;;;;;;;;;5011020;28;20046;-85
2022/12/31 08:29:22;;;;;;;;;;;;;;;;;;5025130;28;20104;-85
2022/12/31 08:31:56;;;;;;;1999.90;999.90;;;;;;;;;;5014229;28;19952;-84
2022/12/31 08:34:27;;;;;;;1999.90;999.90;;;;;;;;;;5011522;28;20077;-84
2022/12/31 08:37:01;;;;;;;1999.90;999.90;;;;;;;;;;5008584;28;20054;-85
2022/12/31 08:39:37;;;;;;;1999.90;999.90;;;;;;;;;;5006967;28;20109;-84
2022/12/31 08:42:13;;;;;;;1999.90;999.90;;;;;;;;;;5005230;28;20104;-85
2022/12/31 08:44:44;;;;;;;1999.90;999.90;;;;;;;;;;5008005;28;20077;-84
2022/12/31 08:47:18;;;;;;;1999.90;999.90;;;;;;;;;;5004229;28;20084;-84
2022/12/31 08:49:45;;;;;;;1999.90;999.90;;;;;;;;;;5008198;28;20473;-84
2022/12/31 08:52:16;;;;;;;1999.90;999.90;;;;;;;;;;4999228;28;20054;-87
2022/12/31 08:54:44;;;;;;;1999.90;999.90;;;;;;;;;;5012064;28;20054;-85
2022/12/31 08:57:16;;;;;;;1999.90;999.90;;;;;;;;;;5009230;28;20128;-85
2022/12/31 08:59:48;;;;;;;1999.90;999.90;;;;;;;;;;5009293;28;20084;-86
2022/12/31 09:02:25;;;;;;;1999.90;999.90;;;;;;;;;;5009407;28;20130;-85
2022/12/31 09:05:02;;;;;;;1999.90;999.90;;;;;;;;;;5010392;28;20081;-85
2022/12/31 09:07:34;;;;;;;1999.90;999.90;;;;;;;;;;5010184;28;20088;-86
2022/12/31 09:10:08;;;;;;;1999.90;999.90;;;;;;;;;;5010462;28;20069;-82
2022/12/31 09:12:43;;;;;;;1999.90;999.90;;;;;;;;;;5006466;28;20077;-84
2022/12/31 09:15:13;;;;;;;1999.90;999.90;;;;;;;;;;5007659;28;20097;-89
2022/12/31 09:17:45;;;;;;;1999.90;999.90;;;;;;;;;;5009613;28;20085;-88
2022/12/31 09:20:21;;;;;;;1999.90;999.90;;;;;;;;;;5007981;28;20066;-89
2022/12/31 09:22:48;;;;;;;1999.90;999.90;;;;;;;;;;5005326;28;20512;-87
2022/12/31 09:25:19;;;;;;;1999.90;999.90;;;;;;;;;;4997577;28;20057;-85
2022/12/31 09:27:55;;;;;;;1999.90;999.90;;;;;;;;;;5009570;28;20081;-88
2022/12/31 09:30:22;;;;;;;1999.90;999.90;;;;;;;;;;5016241;28;20049;-91
2022/12/31 09:32:53;;;;;;;1999.90;999.90;;;;;;;;;;5019378;28;20053;-87
2022/12/31 09:35:27;;;;;;;1999.90;999.90;;;;;;;;;;5011046;28;20104;-89
2022/12/31 09:37:57;;;;;;;1999.90;999.90;;;;;;;;;;5018448;28;20101;-90
2022/12/31 09:40:38;;;;;;;1999.90;999.90;;;;;;;;;;5009598;28;20077;-89
2022/12/31 09:43:25;;;;;;;1999.90;999.90;;;;;;;;;;5002595;28;20081;-90
2022/12/31 09:46:13;;;;;;;1999.90;999.90;;;;;;;;;;5009431;28;20046;-89
2022/12/31 09:49:05;;;;;;;1999.90;999.90;;;;;;;;;;5006863;28;20473;-89
2022/12/31 09:51:33;;;;;;;1999.90;999.90;;;;;;;;;;5009331;28;20134;-90
2022/12/31 09:54:12;;;;;;;1999.90;999.90;;;;;;;;;;5013184;28;20077;-89
2022/12/31 09:56:43;;;;;;;1999.90;999.90;;;;;;;;;;5002616;28;20069;-89
2022/12/31 09:59:15;;;;;;;1999.90;999.90;;;;;;;;;;5007472;28;20056;-89
2022/12/31 10:01:49;;;;;;;1999.90;999.90;;;;;;;;;;5012537;28;20088;-88
2022/12/31 10:04:33;;;;;;;1999.90;999.90;;;;;;;;;;5018101;28;20137;-87
2022/12/31 10:07:07;;;;;;;1999.90;999.90;;;;;;;;;;5010272;28;20053;-88
2022/12/31 10:09:42;;;;;;;1999.90;999.90;;;;;;;;;;5004358;28;20077;-88
2022/12/31 10:12:28;;;;;;;1999.90;999.90;;;;;;;;;;5009391;28;20145;-88
2022/12/31 10:15:10;;;;;;;1999.90;999.90;;;;;;;;;;5002413;28;20085;-87
2022/12/31 10:17:49;;;;;;;1999.90;999.90;;;;;;;;;;5009934;28;20050;-88
2022/12/31 10:20:31;;;;;;;1999.90;999.90;;;;;;;;;;5013435;28;20537;-86
2022/12/31 10:23:18;;;;;;;1999.90;999.90;;;;;;;;;;5013169;28;20077;-87
2022/12/31 10:26:05;;;;;;;1999.90;999.90;;;;;;;;;;5005489;28;20098;-87
2022/12/31 10:28:41;;;;;;;1999.90;999.90;;;;;;;;;;5003169;28;20042;-87
2022/12/31 10:31:13;;;;;;;;;;;;;;;;;;5008982;28;20124;-87
2022/12/31 10:33:44;;;;;;;1999.90;999.90;;;;;;;;;;5008622;28;20027;-87
2022/12/31 10:36:19;;;;;;;1999.90;999.90;;;;;;;;;;5011947;28;20327;-87
2022/12/31 10:38:55;;;;;;;1999.90;999.90;;;;;;;;;;5011370;28;20042;-88
2022/12/31 10:41:56;;;;;;;1999.90;999.90;;;;;;;;;;5006128;28;20189;-88
2022/12/31 10:45:02;;;;;;;1999.90;999.90;;;;;;;;;;5007579;28;20066;-87
2022/12/31 10:47:52;;;;;;;1999.90;999.90;;;;;;;;;;5006252;28;20078;-87
2022/12/31 10:50:34;;;;;;;1999.90;999.90;;;;;;;;;;5013458;28;20292;-87
2022/12/31 10:53:31;;;;;;;1999.90;999.90;;;;;;;;;;5004372;28;20442;-87
2022/12/31 10:56:13;;;;;;;1999.90;999.90;;;;;;;;;;5012634;28;20057;-86
2022/12/31 10:59:01;;;;;;;1999.90;999.90;;;;;;;;;;5001844;28;20089;-87
2022/12/31 11:01:48;;;;;;;1999.90;999.90;;;;;;;;;;5004437;28;20549;-86
2022/12/31 11:04:37;;;;;;;1999.90;999.90;;;;;;;;;;4986261;28;20137;-86
2022/12/31 11:07:25;;;;;;;1999.90;999.90;;;;;;;;;;5000184;28;20421;-86
2022/12/31 11:10:20;;;;;;;1999.90;999.90;;;;;;;;;;5003979;28;20505;-86
2022/12/31 11:13:12;;;;;;;1999.90;999.90;;;;;;;;;;5004204;28;20050;-85
2022/12/31 11:15:54;;;;;;;1999.90;999.90;;;;;;;;;;5001061;28;20050;-86
2022/12/31 11:18:29;;;;;;;1999.90;999.90;;;;;;;;;;4998650;28;20328;-87
2022/12/31 11:21:09;;;;;;;1999.90;999.90;;;;;;;;;;5004681;28;20776;-86
2022/12/31 11:23:43;;;;;;;1999.90;999.90;;;;;;;;;;4998115;28;20104;-86
2022/12/31 11:26:18;;;;;;;1999.90;999.90;;;;;;;;;;5009256;28;20077;-86
2022/12/31 11:28:57;;;;;;;1999.90;999.90;;;;;;;;;;5002622;28;20136;-85
2022/12/31 11:31:37;;;;;;;1999.90;999.90;;;;;;;;;;5008232;28;20048;-86
2022/12/31 11:34:16;;;;;;;1999.90;999.90;;;;;;;;;;5006291;28;20054;-85
2022/12/31 11:36:58;;;;;;;1999.90;999.90;;;;;;;;;;4997190;28;20093;-86
2022/12/31 11:39:35;;;;;;;1999.90;999.90;;;;;;;;;;5002575;28;20074;-86
2022/12/31 11:42:07;;;;;;;1999.90;999.90;;;;;;;;;;5012310;28;20665;-85
2022/12/31 11:44:43;;;;;;;1999.90;999.90;;;;;;;;;;5010371;28;20078;-86
2022/12/31 11:47:22;;;;;;;1999.90;999.90;;;;;;;;;;5008552;28;20081;-86
2022/12/31 11:50:00;;;;;;;1999.90;999.90;;;;;;;;;;5005014;28;20082;-85
2022/12/31 11:52:46;;;;;;;1999.90;999.90;;;;;;;;;;4998965;28;20121;-86
2022/12/31 11:55:26;;;;;;;1999.90;999.90;;;;;;;;;;5002824;28;20148;-85
2022/12/31 11:57:53;;;;;;;1999.90;999.90;;;;;;;;;;5003032;28;20093;-86
2022/12/31 12:00:22;;;;;;;1999.90;999.90;;;;;;;;;;5003839;28;20042;-85
2022/12/31 12:02:50;;;;;;;1999.90;999.90;;;;;;;;;;5003907;28;20058;-86
2022/12/31 12:05:20;;;;;;;1999.90;999.90;;;;;;;;;;5005111;28;20104;-86
2022/12/31 12:07:49;;;;;;;1999.90;999.90;;;;;;;;;;5002562;28;20046;-86
2022/12/31 12:10:24;;;;;;;1999.90;999.90;;;;;;;;;;4997524;28;20137;-86
2022/12/31 12:12:52;;;;;;;1999.90;999.90;;;;;;;;;;5006693;28;20041;-87
2022/12/31 12:15:22;;;;;;;1999.90;999.90;;;;;;;;;;5010497;28;20077;-88
2022/12/31 12:17:50;;;;;;;1999.90;999.90;;;;;;;;;;5004182;28;20505;-87
2022/12/31 12:20:20;;;;;;;1999.90;999.90;;;;;;;;;;5007239;28;20086;-87
2022/12/31 12:22:56;;;;;;;1999.90;999.90;;;;;;;;;;5000018;28;20180;-87
2022/12/31 12:25:25;;;;;;;1999.90;999.90;;;;;;;;;;5007561;28;20116;-86
2022/12/31 12:27:52;;;;;;;1999.90;999.90;;;;;;;;;;5008490;28;20115;-87
2022/12/31 12:30:21;;;;;;;1999.90;999.90;;;;;;;;;;5003525;28;20078;-87
2022/12/31 12:32:53;;;;;;;1999.90;999.90;;;;;;;;;;5001157;28;20080;-86
2022/12/31 12:35:25;;;;;;;1999.90;999.90;;;;;;;;;;5003608;28;20045;-87
2022/12/31 12:38:02;;;;;;;1999.90;999.90;;;;;;;;;;5006650;28;20481;-87
2022/12/31 12:40:29;;;;;;;1999.90;999.90;;;;;;;;;;5011699;28;20089;-86
2022/12/31 12:42:56;;;;;;;1999.90;999.90;;;;;;;;;;5003854;28;20473;-86
2022/12/31 12:45:24;;;;;;;1999.90;999.90;;;;;;;;;;5005909;28;20083;-89
2022/12/31 12:47:55;;;;;;;1999.90;999.90;;;;;;;;;;5003766;28;20077;-87
2022/12/31 12:50:25;;;;;;;1999.90;999.90;;;;;;;;;;5005388;28;20089;-89
2022/12/31 12:53:11;;;;;;;1999.90;999.90;;;;;;;;;;5012030;28;20076;-87
2022/12/31 12:55:43;;;;;;;1999.90;999.90;;;;;;;;;;5009031;28;20136;-87
2022/12/31 12:58:19;;;;;;;1999.90;999.90;;;;;;;;;;5008021;28;20137;-88
2022/12/31 13:00:50;;;;;;;1999.90;999.90;;;;;;;;;;4997892;28;20404;-87
2022/12/31 13:03:32;;;;;;;1999.90;999.90;;;;;;;;;;4992375;28;20085;-87
2022/12/31 13:06:11;;;;;;;1999.90;999.90;;;;;;;;;;5008571;28;20073;-87
2022/12/31 13:08:59;;;;;;;1999.90;999.90;;;;;;;;;;4998899;28;20439;-86
2022/12/31 13:11:35;;;;;;;1999.90;999.90;;;;;;;;;;5009072;28;20474;-86
2022/12/31 13:14:08;;;;;;;1999.90;999.90;;;;;;;;;;5005632;28;20081;-89
2022/12/31 13:16:39;;;;;;;1999.90;999.90;;;;;;;;;;5010959;28;20038;-87
2022/12/31 13:19:13;;;;;;;1999.90;999.90;;;;;;;;;;5001518;28;20062;-87
2022/12/31 13:21:46;;;;;;;1999.90;999.90;;;;;;;;;;5007129;28;20050;-87
2022/12/31 13:24:25;;;;;;;1999.90;999.90;;;;;;;;;;5005823;28;20070;-88
2022/12/31 13:26:57;;;;;;;1999.90;999.90;;;;;;;;;;5009089;28;20042;-86
2022/12/31 13:29:25;;;;;;;1999.90;999.90;;;;;;;;;;5006807;28;20298;-85
2022/12/31 13:31:53;;;;;;;1999.90;999.90;;;;;;;;;;5006055;28;20073;-87
2022/12/31 13:34:23;;;;;;;1999.90;999.90;;;;;;;;;;5011347;28;20085;-86
2022/12/31 13:36:52;;;;;;;1999.90;999.90;;;;;;;;;;5012376;28;20101;-86
2022/12/31 13:39:25;;;;;;;1999.90;999.90;;;;;;;;;;5011876;28;20508;-85
2022/12/31 13:41:55;;;;;;;1999.90;999.90;;;;;;;;;;5010068;28;20089;-87
2022/12/31 13:44:28;;;;;;;1999.90;999.90;;;;;;;;;;5004476;28;20521;-84
2022/12/31 13:46:58;;;;;;;1999.90;999.90;;;;;;;;;;5003487;28;20074;-86
2022/12/31 13:49:32;;;;;;;1999.90;999.90;;;;;;;;;;5003226;28;20046;-85
2022/12/31 13:52:03;;;;;;;1999.90;999.90;;;;;;;;;;4997410;28;20141;-86
2022/12/31 13:54:37;;;;;;;1999.90;999.90;;;;;;;;;;5009678;28;20049;-86
2022/12/31 13:57:09;;;;;;;1999.90;999.90;;;;;;;;;;5003105;28;20104;-87
2022/12/31 13:59:38;;;;;;;1999.90;999.90;;;;;;;;;;5011265;28;20077;-87
2022/12/31 14:02:16;;;;;;;1999.90;999.90;;;;;;;;;;5008127;28;20061;-88
2022/12/31 14:04:48;;;;;;;1999.90;999.90;;;;;;;;;;4997870;28;20046;-87
2022/12/31 14:07:18;;;;;;;1999.90;999.90;;;;;;;;;;5002431;28;20045;-87
2022/12/31 14:09:47;;;;;;;1999.90;999.90;;;;;;;;;;5004267;28;20107;-87
2022/12/31 14:12:24;;;;;;;1999.90;999.90;;;;;;;;;;5008621;28;20101;-87
2022/12/31 14:14:56;;;;;;;1999.90;999.90;;;;;;;;;;5005723;28;20046;-87
2022/12/31 14:17:27;;;;;;;1999.90;999.90;;;;;;;;;;5008050;28;20073;-89
2022/12/31 14:20:02;;;;;;;1999.90;999.90;;;;;;;;;;4988607;28;20058;-88
2022/12/31 14:22:35;;;;;;;1999.90;999.90;;;;;;;;;;5006286;28;20105;-87
2022/12/31 14:25:06;;;;;;;1999.90;999.90;;;;;;;;;;5005072;28;20136;-90
2022/12/31 14:27:35;;;;;;;1999.90;999.90;;;;;;;;;;4987860;28;20054;-88
2022/12/31 14:30:04;;;;;;;1999.90;999.90;;;;;;;;;;4992317;28;20414;-89
2022/12/31 14:32:48;;;;;;;1999.90;999.90;;;;;;;;;;5001399;28;20121;-90
2022/12/31 14:35:26;;;;;;;1999.90;999.90;;;;;;;;;;5005226;28;20070;-89